Terminal Aerodrome Forecast
Issued by NWS

Home | Current Version | Previous Version | Text Only | Print | Product List | Glossary On
Versions: 1 2 3 4 5 6 7 8 9 10 11 12 13 14 15
000
FTUS42 TJSJ 251722
TAFIST
TAF
TIST 251722Z 2518/2618 12010KT P6SM VCSH SCT012 BKN040 OVC070
     FM252330 07006KT P6SM VCSH SCT025
     FM261400 12013KT P6SM FEW020 BKN035 BKN060=

USA.gov is the U.S. government's official web portal to all federal, state and local government web resources and services.